Main page
METAR-TAF:

METAR-TAF

Airports :

Bluefields Airport

Bluefields, Nicaragua

latitude: 12-00N, longitude: 083-46W, elevation: 5 m

Current weather observation

The report was made 57 minutes ago, at 17:00 UTC
Wind 4 kt from the North/Northwest
Temperature 28°C
Humidity 84%
Pressure 1015 hPa
Visibility: 8000 m
Broken clouds at a height of 1600 ft
in the vicinity, rain

METAR: MNBL 221700Z 33004KT 8000 VCRA BKN016 28/25 Q1015 RA/N/NE/S

Time: 11:57 (17:57 UTC)

Forecast

The report was made 57 minutes ago, at 17:00 UTC
Forecast valid from 22 at 18 UTC to 23 at 18 UTC
Wind 4 kt from the North/Northwest
Visibility: 7000 m
Broken clouds at a height of 1700 ft
in the vicinity, rain
Becoming
from 23 at 15 UTC to 23 at 21 UTC
Broken clouds at a height of 1800 ft, Cumulonimbus.
thunderstorm, light rain

TAF: MNBL 221700Z 2218/2318 33004KT 7000 VCRA BKN017 BECMG 2315/2321 08006 KT 9999/8000 -TSRA BKN018CB

Weather observations and forecasts of more than 4000 airports (METAR and TAF reports).

The available stations are represented by yellow and red dots on the map.

Hover mouse over dot to see the name of the station.

Then click to see weather observations and forecasts.

To change the map : click on the green buttons with a black cross to zoom in, on the green button with a dash to zoom out, or on the green arrows for adjacent maps.


METAR-TAF: